sensor_id;sensor_type;location;lat;lon;timestamp;temperature;humidity
52189;DHT22;38162;45.926;13.608;2023-07-13T00:01:16;26.80;78.80
52189;DHT22;38162;45.926;13.608;2023-07-13T00:03:42;26.80;78.90
52189;DHT22;38162;45.926;13.608;2023-07-13T00:06:09;26.70;78.60
52189;DHT22;38162;45.926;13.608;2023-07-13T00:08:35;26.80;78.50
52189;DHT22;38162;45.926;13.608;2023-07-13T00:11:02;26.70;78.50
52189;DHT22;38162;45.926;13.608;2023-07-13T00:13:28;26.80;78.50
52189;DHT22;38162;45.926;13.608;2023-07-13T00:15:55;26.80;78.50
52189;DHT22;38162;45.926;13.608;2023-07-13T00:18:21;26.80;78.80
52189;DHT22;38162;45.926;13.608;2023-07-13T00:20:47;26.80;78.90
52189;DHT22;38162;45.926;13.608;2023-07-13T00:23:14;26.80;79.10
52189;DHT22;38162;45.926;13.608;2023-07-13T00:25:39;26.80;79.80
52189;DHT22;38162;45.926;13.608;2023-07-13T00:28:05;26.80;80.10
52189;DHT22;38162;45.926;13.608;2023-07-13T00:30:31;26.70;80.40
52189;DHT22;38162;45.926;13.608;2023-07-13T00:32:57;26.70;77.20
52189;DHT22;38162;45.926;13.608;2023-07-13T00:35:25;26.70;75.70
52189;DHT22;38162;45.926;13.608;2023-07-13T00:37:51;26.60;75.30
52189;DHT22;38162;45.926;13.608;2023-07-13T00:40:18;26.60;75.50
52189;DHT22;38162;45.926;13.608;2023-07-13T00:42:43;26.50;75.00
52189;DHT22;38162;45.926;13.608;2023-07-13T00:47:43;26.50;74.80
52189;DHT22;38162;45.926;13.608;2023-07-13T00:50:11;26.50;74.70
52189;DHT22;38162;45.926;13.608;2023-07-13T00:52:40;26.50;74.30
52189;DHT22;38162;45.926;13.608;2023-07-13T00:55:07;26.50;73.70
52189;DHT22;38162;45.926;13.608;2023-07-13T00:57:35;26.50;74.80
52189;DHT22;38162;45.926;13.608;2023-07-13T01:00:05;26.20;79.90
52189;DHT22;38162;45.926;13.608;2023-07-13T01:02:33;25.90;81.50
52189;DHT22;38162;45.926;13.608;2023-07-13T01:04:59;25.50;83.10
52189;DHT22;38162;45.926;13.608;2023-07-13T01:07:25;25.20;84.30
52189;DHT22;38162;45.926;13.608;2023-07-13T01:09:51;25.00;84.80
52189;DHT22;38162;45.926;13.608;2023-07-13T01:12:16;24.80;85.40
52189;DHT22;38162;45.926;13.608;2023-07-13T01:14:43;24.70;86.50
52189;DHT22;38162;45.926;13.608;2023-07-13T01:17:10;24.70;87.00
52189;DHT22;38162;45.926;13.608;2023-07-13T01:19:42;24.60;87.60
52189;DHT22;38162;45.926;13.608;2023-07-13T01:22:17;24.60;87.80
52189;DHT22;38162;45.926;13.608;2023-07-13T01:24:45;24.60;87.20
52189;DHT22;38162;45.926;13.608;2023-07-13T01:27:14;24.50;87.80
52189;DHT22;38162;45.926;13.608;2023-07-13T01:29:43;24.40;87.50
52189;DHT22;38162;45.926;13.608;2023-07-13T01:32:15;24.40;87.70
52189;DHT22;38162;45.926;13.608;2023-07-13T01:34:41;24.30;88.70
52189;DHT22;38162;45.926;13.608;2023-07-13T01:37:09;24.20;89.20
52189;DHT22;38162;45.926;13.608;2023-07-13T01:39:35;24.20;89.90
52189;DHT22;38162;45.926;13.608;2023-07-13T01:42:00;24.20;89.90
52189;DHT22;38162;45.926;13.608;2023-07-13T01:44:26;24.10;89.10
52189;DHT22;38162;45.926;13.608;2023-07-13T01:46:52;24.00;89.50
52189;DHT22;38162;45.926;13.608;2023-07-13T01:49:18;24.00;90.00
52189;DHT22;38162;45.926;13.608;2023-07-13T01:51:44;23.90;90.30
52189;DHT22;38162;45.926;13.608;2023-07-13T01:54:10;23.90;90.50
52189;DHT22;38162;45.926;13.608;2023-07-13T01:56:36;23.80;90.70
52189;DHT22;38162;45.926;13.608;2023-07-13T01:59:01;23.80;91.00
52189;DHT22;38162;45.926;13.608;2023-07-13T02:01:27;23.70;91.20
52189;DHT22;38162;45.926;13.608;2023-07-13T02:03:53;23.70;91.30
52189;DHT22;38162;45.926;13.608;2023-07-13T02:06:18;23.70;91.50
52189;DHT22;38162;45.926;13.608;2023-07-13T02:08:44;23.70;91.50
52189;DHT22;38162;45.926;13.608;2023-07-13T02:11:10;23.70;91.70
52189;DHT22;38162;45.926;13.608;2023-07-13T02:13:36;23.70;91.80
52189;DHT22;38162;45.926;13.608;2023-07-13T02:16:02;23.80;91.90
52189;DHT22;38162;45.926;13.608;2023-07-13T02:18:28;23.70;91.80
52189;DHT22;38162;45.926;13.608;2023-07-13T02:20:53;23.80;91.90
52189;DHT22;38162;45.926;13.608;2023-07-13T02:23:19;23.80;91.90
52189;DHT22;38162;45.926;13.608;2023-07-13T02:25:45;23.90;91.60
52189;DHT22;38162;45.926;13.608;2023-07-13T02:28:11;24.00;91.30
52189;DHT22;38162;45.926;13.608;2023-07-13T02:30:37;23.90;91.20
52189;DHT22;38162;45.926;13.608;2023-07-13T02:33:04;23.80;91.30
52189;DHT22;38162;45.926;13.608;2023-07-13T02:35:30;23.70;91.40
52189;DHT22;38162;45.926;13.608;2023-07-13T02:37:55;23.70;91.50
52189;DHT22;38162;45.926;13.608;2023-07-13T02:40:22;23.60;91.70
52189;DHT22;38162;45.926;13.608;2023-07-13T02:42:48;23.60;91.90
52189;DHT22;38162;45.926;13.608;2023-07-13T02:45:13;23.60;92.00
52189;DHT22;38162;45.926;13.608;2023-07-13T02:47:40;23.50;91.90
52189;DHT22;38162;45.926;13.608;2023-07-13T02:50:07;23.50;92.00
52189;DHT22;38162;45.926;13.608;2023-07-13T02:52:33;23.50;92.20
52189;DHT22;38162;45.926;13.608;2023-07-13T02:54:59;23.50;92.20
52189;DHT22;38162;45.926;13.608;2023-07-13T02:57:24;23.50;92.20
52189;DHT22;38162;45.926;13.608;2023-07-13T02:59:50;23.50;92.20
52189;DHT22;38162;45.926;13.608;2023-07-13T03:02:16;23.50;92.20
52189;DHT22;38162;45.926;13.608;2023-07-13T03:04:42;23.50;92.20
52189;DHT22;38162;45.926;13.608;2023-07-13T03:07:08;23.60;92.40
52189;DHT22;38162;45.926;13.608;2023-07-13T03:09:34;23.60;92.50
52189;DHT22;38162;45.926;13.608;2023-07-13T03:12:01;23.60;92.50
52189;DHT22;38162;45.926;13.608;2023-07-13T03:14:27;23.60;92.60
52189;DHT22;38162;45.926;13.608;2023-07-13T03:16:52;23.60;92.70
52189;DHT22;38162;45.926;13.608;2023-07-13T03:19:19;23.60;92.60
52189;DHT22;38162;45.926;13.608;2023-07-13T03:21:44;23.60;92.80
52189;DHT22;38162;45.926;13.608;2023-07-13T03:24:11;23.60;92.70
52189;DHT22;38162;45.926;13.608;2023-07-13T03:26:36;23.60;92.90
52189;DHT22;38162;45.926;13.608;2023-07-13T03:29:02;23.60;93.00
52189;DHT22;38162;45.926;13.608;2023-07-13T03:31:34;23.60;93.00
52189;DHT22;38162;45.926;13.608;2023-07-13T03:34:01;23.60;93.00
52189;DHT22;38162;45.926;13.608;2023-07-13T03:36:28;23.60;93.00
52189;DHT22;38162;45.926;13.608;2023-07-13T03:38:57;23.60;93.00
52189;DHT22;38162;45.926;13.608;2023-07-13T03:41:24;23.60;93.00
52189;DHT22;38162;45.926;13.608;2023-07-13T03:43:50;23.60;93.00
52189;DHT22;38162;45.926;13.608;2023-07-13T03:46:17;23.60;93.00
52189;DHT22;38162;45.926;13.608;2023-07-13T03:48:45;23.60;93.00
52189;DHT22;38162;45.926;13.608;2023-07-13T03:51:12;23.60;93.00
52189;DHT22;38162;45.926;13.608;2023-07-13T03:53:41;23.60;93.00
52189;DHT22;38162;45.926;13.608;2023-07-13T03:56:07;23.60;93.10
52189;DHT22;38162;45.926;13.608;2023-07-13T03:58:36;23.60;93.10
52189;DHT22;38162;45.926;13.608;2023-07-13T04:01:03;23.70;93.20
52189;DHT22;38162;45.926;13.608;2023-07-13T04:03:31;23.70;93.30
52189;DHT22;38162;45.926;13.608;2023-07-13T04:06:02;23.60;93.30
52189;DHT22;38162;45.926;13.608;2023-07-13T04:08:30;23.70;93.20
52189;DHT22;38162;45.926;13.608;2023-07-13T04:10:57;23.70;93.10
52189;DHT22;38162;45.926;13.608;2023-07-13T04:13:23;23.70;92.90
52189;DHT22;38162;45.926;13.608;2023-07-13T04:15:50;23.70;92.70
52189;DHT22;38162;45.926;13.608;2023-07-13T04:18:16;23.60;92.60
52189;DHT22;38162;45.926;13.608;2023-07-13T04:20:42;23.60;92.10
52189;DHT22;38162;45.926;13.608;2023-07-13T04:23:08;23.60;91.90
52189;DHT22;38162;45.926;13.608;2023-07-13T04:25:33;23.60;91.90
52189;DHT22;38162;45.926;13.608;2023-07-13T04:27:59;23.60;91.90
52189;DHT22;38162;45.926;13.608;2023-07-13T04:30:25;23.60;91.80
52189;DHT22;38162;45.926;13.608;2023-07-13T04:32:52;23.60;91.70
52189;DHT22;38162;45.926;13.608;2023-07-13T04:35:19;23.60;91.60
52189;DHT22;38162;45.926;13.608;2023-07-13T04:37:47;23.60;91.70
52189;DHT22;38162;45.926;13.608;2023-07-13T04:40:18;23.60;91.80
52189;DHT22;38162;45.926;13.608;2023-07-13T04:42:45;23.60;92.00
52189;DHT22;38162;45.926;13.608;2023-07-13T04:45:12;23.60;92.20
52189;DHT22;38162;45.926;13.608;2023-07-13T04:47:38;23.60;92.30
52189;DHT22;38162;45.926;13.608;2023-07-13T04:50:04;23.60;92.30
52189;DHT22;38162;45.926;13.608;2023-07-13T04:52:30;23.60;92.30
52189;DHT22;38162;45.926;13.608;2023-07-13T04:54:56;23.60;92.20
52189;DHT22;38162;45.926;13.608;2023-07-13T04:57:21;23.60;92.30
52189;DHT22;38162;45.926;13.608;2023-07-13T04:59:47;23.60;92.40
52189;DHT22;38162;45.926;13.608;2023-07-13T05:02:13;23.60;92.30
52189;DHT22;38162;45.926;13.608;2023-07-13T05:04:39;23.60;92.30
52189;DHT22;38162;45.926;13.608;2023-07-13T05:07:05;23.60;92.40
52189;DHT22;38162;45.926;13.608;2023-07-13T05:09:31;23.60;92.50
52189;DHT22;38162;45.926;13.608;2023-07-13T05:11:57;23.60;92.50
52189;DHT22;38162;45.926;13.608;2023-07-13T05:14:23;23.60;92.20
52189;DHT22;38162;45.926;13.608;2023-07-13T05:16:48;23.60;92.20
52189;DHT22;38162;45.926;13.608;2023-07-13T05:19:14;23.60;92.20
52189;DHT22;38162;45.926;13.608;2023-07-13T05:21:40;23.60;92.20
52189;DHT22;38162;45.926;13.608;2023-07-13T05:24:06;23.70;92.10
52189;DHT22;38162;45.926;13.608;2023-07-13T05:26:32;23.70;91.90
52189;DHT22;38162;45.926;13.608;2023-07-13T05:28:58;23.70;91.60
52189;DHT22;38162;45.926;13.608;2023-07-13T05:31:24;23.70;91.50
52189;DHT22;38162;45.926;13.608;2023-07-13T05:33:49;23.70;91.80
52189;DHT22;38162;45.926;13.608;2023-07-13T05:36:15;23.70;91.80
52189;DHT22;38162;45.926;13.608;2023-07-13T05:38:41;23.70;91.60
52189;DHT22;38162;45.926;13.608;2023-07-13T05:41:07;23.80;91.40
52189;DHT22;38162;45.926;13.608;2023-07-13T05:43:33;23.80;91.30
52189;DHT22;38162;45.926;13.608;2023-07-13T05:45:59;23.80;91.30
52189;DHT22;38162;45.926;13.608;2023-07-13T05:48:24;23.80;91.30
52189;DHT22;38162;45.926;13.608;2023-07-13T05:50:50;23.90;91.40
52189;DHT22;38162;45.926;13.608;2023-07-13T05:53:16;23.90;91.50
52189;DHT22;38162;45.926;13.608;2023-07-13T05:55:45;24.00;91.60
52189;DHT22;38162;45.926;13.608;2023-07-13T05:58:17;24.00;91.50
52189;DHT22;38162;45.926;13.608;2023-07-13T06:00:43;24.00;91.50
52189;DHT22;38162;45.926;13.608;2023-07-13T06:03:09;24.00;91.60
52189;DHT22;38162;45.926;13.608;2023-07-13T06:05:36;24.10;91.80
52189;DHT22;38162;45.926;13.608;2023-07-13T06:08:04;24.10;91.80
52189;DHT22;38162;45.926;13.608;2023-07-13T06:10:33;24.20;91.80
52189;DHT22;38162;45.926;13.608;2023-07-13T06:12:58;24.20;91.80
52189;DHT22;38162;45.926;13.608;2023-07-13T06:15:24;24.30;92.00
52189;DHT22;38162;45.926;13.608;2023-07-13T06:17:50;24.30;91.90
52189;DHT22;38162;45.926;13.608;2023-07-13T06:20:16;24.30;92.00
52189;DHT22;38162;45.926;13.608;2023-07-13T06:22:41;24.30;92.30
52189;DHT22;38162;45.926;13.608;2023-07-13T06:25:07;24.40;92.40
52189;DHT22;38162;45.926;13.608;2023-07-13T06:27:33;24.40;92.50
52189;DHT22;38162;45.926;13.608;2023-07-13T06:29:59;24.50;92.60
52189;DHT22;38162;45.926;13.608;2023-07-13T06:32:25;24.50;92.80
52189;DHT22;38162;45.926;13.608;2023-07-13T06:34:51;24.50;92.80
52189;DHT22;38162;45.926;13.608;2023-07-13T06:37:18;24.50;92.90
52189;DHT22;38162;45.926;13.608;2023-07-13T06:39:43;24.60;93.00
52189;DHT22;38162;45.926;13.608;2023-07-13T06:42:09;24.70;93.10
52189;DHT22;38162;45.926;13.608;2023-07-13T06:44:36;24.70;93.20
52189;DHT22;38162;45.926;13.608;2023-07-13T06:47:02;24.70;93.10
52189;DHT22;38162;45.926;13.608;2023-07-13T06:49:28;24.70;93.10
52189;DHT22;38162;45.926;13.608;2023-07-13T06:51:53;24.70;93.10
52189;DHT22;38162;45.926;13.608;2023-07-13T06:54:19;24.80;93.10
52189;DHT22;38162;45.926;13.608;2023-07-13T06:56:45;24.80;93.20
52189;DHT22;38162;45.926;13.608;2023-07-13T06:59:11;24.80;93.20
52189;DHT22;38162;45.926;13.608;2023-07-13T07:01:36;24.80;93.40
52189;DHT22;38162;45.926;13.608;2023-07-13T07:04:03;24.90;93.30
52189;DHT22;38162;45.926;13.608;2023-07-13T07:06:29;24.90;93.10
52189;DHT22;38162;45.926;13.608;2023-07-13T07:08:55;24.90;93.00
52189;DHT22;38162;45.926;13.608;2023-07-13T07:11:23;24.90;93.00
52189;DHT22;38162;45.926;13.608;2023-07-13T07:13:50;25.00;92.70
52189;DHT22;38162;45.926;13.608;2023-07-13T07:16:17;25.00;92.60
52189;DHT22;38162;45.926;13.608;2023-07-13T07:18:43;25.00;92.50
52189;DHT22;38162;45.926;13.608;2023-07-13T07:21:09;25.00;92.40
52189;DHT22;38162;45.926;13.608;2023-07-13T07:23:35;25.10;92.00
52189;DHT22;38162;45.926;13.608;2023-07-13T07:26:01;25.10;91.90
52189;DHT22;38162;45.926;13.608;2023-07-13T07:28:26;25.20;92.00
52189;DHT22;38162;45.926;13.608;2023-07-13T07:30:55;25.20;92.00
52189;DHT22;38162;45.926;13.608;2023-07-13T07:33:21;25.20;92.00
52189;DHT22;38162;45.926;13.608;2023-07-13T07:35:47;25.30;91.90
52189;DHT22;38162;45.926;13.608;2023-07-13T07:38:13;25.40;92.00
52189;DHT22;38162;45.926;13.608;2023-07-13T07:40:40;25.40;92.00
52189;DHT22;38162;45.926;13.608;2023-07-13T07:43:06;25.40;91.90
52189;DHT22;38162;45.926;13.608;2023-07-13T07:45:32;25.50;91.90
52189;DHT22;38162;45.926;13.608;2023-07-13T07:47:58;25.50;91.80
52189;DHT22;38162;45.926;13.608;2023-07-13T07:50:28;25.50;91.50
52189;DHT22;38162;45.926;13.608;2023-07-13T07:52:54;25.60;91.50
52189;DHT22;38162;45.926;13.608;2023-07-13T07:55:22;25.60;91.40
52189;DHT22;38162;45.926;13.608;2023-07-13T07:57:48;25.60;91.30
52189;DHT22;38162;45.926;13.608;2023-07-13T08:00:15;25.60;91.10
52189;DHT22;38162;45.926;13.608;2023-07-13T08:02:41;25.70;90.90
52189;DHT22;38162;45.926;13.608;2023-07-13T08:05:08;25.70;90.90
52189;DHT22;38162;45.926;13.608;2023-07-13T08:07:34;25.70;91.00
52189;DHT22;38162;45.926;13.608;2023-07-13T08:10:00;25.70;90.80
52189;DHT22;38162;45.926;13.608;2023-07-13T08:12:26;25.70;90.80
52189;DHT22;38162;45.926;13.608;2023-07-13T08:14:52;25.80;91.00
52189;DHT22;38162;45.926;13.608;2023-07-13T08:17:19;25.80;91.00
52189;DHT22;38162;45.926;13.608;2023-07-13T08:19:45;25.80;90.70
52189;DHT22;38162;45.926;13.608;2023-07-13T08:22:11;25.90;90.30
52189;DHT22;38162;45.926;13.608;2023-07-13T08:24:37;25.90;90.30
52189;DHT22;38162;45.926;13.608;2023-07-13T08:27:03;25.90;90.40
52189;DHT22;38162;45.926;13.608;2023-07-13T08:29:28;25.90;90.60
52189;DHT22;38162;45.926;13.608;2023-07-13T08:31:57;26.00;90.60
52189;DHT22;38162;45.926;13.608;2023-07-13T08:34:23;26.00;90.40
52189;DHT22;38162;45.926;13.608;2023-07-13T08:36:49;26.00;90.20
52189;DHT22;38162;45.926;13.608;2023-07-13T08:39:14;26.00;90.20
52189;DHT22;38162;45.926;13.608;2023-07-13T08:41:40;26.10;90.40
52189;DHT22;38162;45.926;13.608;2023-07-13T08:44:14;26.10;90.60
52189;DHT22;38162;45.926;13.608;2023-07-13T08:46:44;26.10;90.80
52189;DHT22;38162;45.926;13.608;2023-07-13T08:49:15;26.10;90.70
52189;DHT22;38162;45.926;13.608;2023-07-13T08:51:44;26.10;90.70
52189;DHT22;38162;45.926;13.608;2023-07-13T08:54:28;26.10;90.60
52189;DHT22;38162;45.926;13.608;2023-07-13T08:56:57;26.10;90.50
52189;DHT22;38162;45.926;13.608;2023-07-13T08:59:28;26.10;90.50
52189;DHT22;38162;45.926;13.608;2023-07-13T09:05:02;26.10;90.50
52189;DHT22;38162;45.926;13.608;2023-07-13T09:15:37;26.20;90.60
52189;DHT22;38162;45.926;13.608;2023-07-13T09:18:21;26.20;90.60
52189;DHT22;38162;45.926;13.608;2023-07-13T09:20:55;26.20;90.60
52189;DHT22;38162;45.926;13.608;2023-07-13T09:23:24;26.20;90.50
52189;DHT22;38162;45.926;13.608;2023-07-13T09:28:30;26.20;90.50
52189;DHT22;38162;45.926;13.608;2023-07-13T09:31:38;26.20;90.40
52189;DHT22;38162;45.926;13.608;2023-07-13T09:34:10;26.30;90.50
52189;DHT22;38162;45.926;13.608;2023-07-13T09:36:36;26.30;90.60
52189;DHT22;38162;45.926;13.608;2023-07-13T09:44:16;26.40;90.60
52189;DHT22;38162;45.926;13.608;2023-07-13T09:46:47;26.50;90.70
52189;DHT22;38162;45.926;13.608;2023-07-13T09:49:17;26.50;90.60
52189;DHT22;38162;45.926;13.608;2023-07-13T09:51:44;26.50;90.60
52189;DHT22;38162;45.926;13.608;2023-07-13T09:54:24;26.50;90.60
52189;DHT22;38162;45.926;13.608;2023-07-13T09:56:58;26.50;90.40
52189;DHT22;38162;45.926;13.608;2023-07-13T09:59:29;26.50;90.30
52189;DHT22;38162;45.926;13.608;2023-07-13T10:01:55;26.50;90.30
52189;DHT22;38162;45.926;13.608;2023-07-13T10:04:29;26.50;90.20
52189;DHT22;38162;45.926;13.608;2023-07-13T10:07:07;26.50;90.20
52189;DHT22;38162;45.926;13.608;2023-07-13T10:09:33;26.50;90.40
52189;DHT22;38162;45.926;13.608;2023-07-13T10:11:59;26.50;90.40
52189;DHT22;38162;45.926;13.608;2023-07-13T10:14:25;26.60;90.40
52189;DHT22;38162;45.926;13.608;2023-07-13T10:17:04;26.60;90.20
52189;DHT22;38162;45.926;13.608;2023-07-13T10:19:32;26.70;90.20
52189;DHT22;38162;45.926;13.608;2023-07-13T10:22:24;26.70;90.10
52189;DHT22;38162;45.926;13.608;2023-07-13T10:24:52;26.70;90.10
52189;DHT22;38162;45.926;13.608;2023-07-13T10:27:20;26.70;90.00
52189;DHT22;38162;45.926;13.608;2023-07-13T10:30:23;26.80;90.10
52189;DHT22;38162;45.926;13.608;2023-07-13T10:32:50;26.90;90.10
52189;DHT22;38162;45.926;13.608;2023-07-13T10:35:17;26.90;89.80
52189;DHT22;38162;45.926;13.608;2023-07-13T10:38:04;26.90;89.30
52189;DHT22;38162;45.926;13.608;2023-07-13T10:40:41;27.00;90.00
52189;DHT22;38162;45.926;13.608;2023-07-13T10:43:33;27.00;89.50
52189;DHT22;38162;45.926;13.608;2023-07-13T10:46:02;27.00;89.40
52189;DHT22;38162;45.926;13.608;2023-07-13T10:48:30;27.00;88.90
52189;DHT22;38162;45.926;13.608;2023-07-13T10:50:58;27.10;88.80
52189;DHT22;38162;45.926;13.608;2023-07-13T10:53:37;27.10;88.80
52189;DHT22;38162;45.926;13.608;2023-07-13T10:58:46;27.10;89.10
52189;DHT22;38162;45.926;13.608;2023-07-13T11:01:16;27.10;89.10
52189;DHT22;38162;45.926;13.608;2023-07-13T11:03:51;27.20;89.40
52189;DHT22;38162;45.926;13.608;2023-07-13T11:08:52;27.10;89.40
52189;DHT22;38162;45.926;13.608;2023-07-13T11:19:37;27.10;90.00
52189;DHT22;38162;45.926;13.608;2023-07-13T11:27:42;27.10;90.40
52189;DHT22;38162;45.926;13.608;2023-07-13T11:30:14;27.10;90.40
52189;DHT22;38162;45.926;13.608;2023-07-13T11:32:44;27.10;90.50
52189;DHT22;38162;45.926;13.608;2023-07-13T11:35:17;27.00;90.60
52189;DHT22;38162;45.926;13.608;2023-07-13T11:37:47;27.10;90.70
52189;DHT22;38162;45.926;13.608;2023-07-13T11:40:14;27.10;90.50
52189;DHT22;38162;45.926;13.608;2023-07-13T11:42:40;27.00;90.30
52189;DHT22;38162;45.926;13.608;2023-07-13T11:45:20;27.00;90.30
52189;DHT22;38162;45.926;13.608;2023-07-13T11:47:48;27.10;90.10
52189;DHT22;38162;45.926;13.608;2023-07-13T11:50:22;27.10;90.00
52189;DHT22;38162;45.926;13.608;2023-07-13T11:52:50;27.10;90.20
52189;DHT22;38162;45.926;13.608;2023-07-13T11:55:18;27.10;90.10
52189;DHT22;38162;45.926;13.608;2023-07-13T11:57:58;27.10;90.00
52189;DHT22;38162;45.926;13.608;2023-07-13T12:00:28;27.10;90.30
52189;DHT22;38162;45.926;13.608;2023-07-13T12:02:57;27.20;90.30
52189;DHT22;38162;45.926;13.608;2023-07-13T12:05:24;27.20;90.10
52189;DHT22;38162;45.926;13.608;2023-07-13T12:07:51;27.20;90.00
52189;DHT22;38162;45.926;13.608;2023-07-13T12:10:28;27.30;89.10
52189;DHT22;38162;45.926;13.608;2023-07-13T12:13:03;27.40;88.90
52189;DHT22;38162;45.926;13.608;2023-07-13T12:15:40;27.40;89.00
52189;DHT22;38162;45.926;13.608;2023-07-13T12:18:21;27.50;88.50
52189;DHT22;38162;45.926;13.608;2023-07-13T12:20:48;27.70;87.70
52189;DHT22;38162;45.926;13.608;2023-07-13T12:23:27;27.80;87.70
52189;DHT22;38162;45.926;13.608;2023-07-13T12:25:53;27.90;87.40
52189;DHT22;38162;45.926;13.608;2023-07-13T12:28:34;28.00;87.50
52189;DHT22;38162;45.926;13.608;2023-07-13T12:31:25;28.10;87.30
52189;DHT22;38162;45.926;13.608;2023-07-13T12:36:24;28.30;87.40
52189;DHT22;38162;45.926;13.608;2023-07-13T12:38:51;28.30;87.10
52189;DHT22;38162;45.926;13.608;2023-07-13T12:41:16;28.40;86.90
52189;DHT22;38162;45.926;13.608;2023-07-13T12:43:45;28.50;86.00
52189;DHT22;38162;45.926;13.608;2023-07-13T12:46:19;28.50;86.50
52189;DHT22;38162;45.926;13.608;2023-07-13T12:48:52;28.50;87.20
52189;DHT22;38162;45.926;13.608;2023-07-13T12:51:22;28.60;87.90
52189;DHT22;38162;45.926;13.608;2023-07-13T12:53:51;28.70;86.30
52189;DHT22;38162;45.926;13.608;2023-07-13T12:56:22;28.70;86.40
52189;DHT22;38162;45.926;13.608;2023-07-13T12:58:48;28.70;86.40
52189;DHT22;38162;45.926;13.608;2023-07-13T13:01:21;28.80;86.80
52189;DHT22;38162;45.926;13.608;2023-07-13T13:03:50;28.80;87.00
52189;DHT22;38162;45.926;13.608;2023-07-13T13:06:28;28.90;87.20
52189;DHT22;38162;45.926;13.608;2023-07-13T13:08:56;28.90;86.60
52189;DHT22;38162;45.926;13.608;2023-07-13T13:11:29;28.90;86.50
52189;DHT22;38162;45.926;13.608;2023-07-13T13:13:55;29.00;86.70
52189;DHT22;38162;45.926;13.608;2023-07-13T13:18:53;29.00;86.80
52189;DHT22;38162;45.926;13.608;2023-07-13T13:21:20;29.00;87.10
52189;DHT22;38162;45.926;13.608;2023-07-13T13:23:46;29.00;87.10
52189;DHT22;38162;45.926;13.608;2023-07-13T13:26:13;29.00;86.70
52189;DHT22;38162;45.926;13.608;2023-07-13T13:28:43;29.00;86.50
52189;DHT22;38162;45.926;13.608;2023-07-13T13:31:10;29.10;86.80
52189;DHT22;38162;45.926;13.608;2023-07-13T13:33:41;29.10;86.20
52189;DHT22;38162;45.926;13.608;2023-07-13T13:36:19;29.10;86.50
52189;DHT22;38162;45.926;13.608;2023-07-13T13:38:47;29.00;87.60
52189;DHT22;38162;45.926;13.608;2023-07-13T13:41:13;29.00;87.30
52189;DHT22;38162;45.926;13.608;2023-07-13T13:43:41;29.00;87.30
52189;DHT22;38162;45.926;13.608;2023-07-13T13:48:40;28.90;86.80
52189;DHT22;38162;45.926;13.608;2023-07-13T13:51:19;28.80;87.10
52189;DHT22;38162;45.926;13.608;2023-07-13T13:53:46;28.80;88.40
52189;DHT22;38162;45.926;13.608;2023-07-13T13:56:13;28.80;87.90
52189;DHT22;38162;45.926;13.608;2023-07-13T13:58:39;28.90;87.90
52189;DHT22;38162;45.926;13.608;2023-07-13T14:01:16;28.90;88.00
52189;DHT22;38162;45.926;13.608;2023-07-13T14:03:43;28.90;88.40
52189;DHT22;38162;45.926;13.608;2023-07-13T14:06:13;28.90;88.40
52189;DHT22;38162;45.926;13.608;2023-07-13T14:08:39;28.90;88.30
52189;DHT22;38162;45.926;13.608;2023-07-13T14:11:11;29.00;88.80
52189;DHT22;38162;45.926;13.608;2023-07-13T14:13:41;29.10;88.10
52189;DHT22;38162;45.926;13.608;2023-07-13T14:16:11;29.10;88.00
52189;DHT22;38162;45.926;13.608;2023-07-13T14:18:38;29.10;88.40
52189;DHT22;38162;45.926;13.608;2023-07-13T14:21:14;29.10;88.00
52189;DHT22;38162;45.926;13.608;2023-07-13T14:23:41;29.10;88.50
52189;DHT22;38162;45.926;13.608;2023-07-13T14:26:15;29.10;88.80
52189;DHT22;38162;45.926;13.608;2023-07-13T14:28:43;29.10;88.10
52189;DHT22;38162;45.926;13.608;2023-07-13T14:31:14;29.00;88.10
52189;DHT22;38162;45.926;13.608;2023-07-13T14:33:40;29.00;87.90
52189;DHT22;38162;45.926;13.608;2023-07-13T14:36:33;29.00;88.30
52189;DHT22;38162;45.926;13.608;2023-07-13T14:39:09;28.90;88.50
52189;DHT22;38162;45.926;13.608;2023-07-13T14:41:36;29.00;88.60
52189;DHT22;38162;45.926;13.608;2023-07-13T14:44:14;29.00;88.60
52189;DHT22;38162;45.926;13.608;2023-07-13T14:46:42;29.00;88.20
52189;DHT22;38162;45.926;13.608;2023-07-13T14:49:30;29.00;87.80
52189;DHT22;38162;45.926;13.608;2023-07-13T14:51:59;29.00;87.70
52189;DHT22;38162;45.926;13.608;2023-07-13T14:54:25;29.00;87.80
52189;DHT22;38162;45.926;13.608;2023-07-13T14:56:51;29.00;87.90
52189;DHT22;38162;45.926;13.608;2023-07-13T14:59:17;29.00;88.20
52189;DHT22;38162;45.926;13.608;2023-07-13T15:01:45;29.00;87.70
52189;DHT22;38162;45.926;13.608;2023-07-13T15:04:11;29.00;88.00
52189;DHT22;38162;45.926;13.608;2023-07-13T15:06:54;29.00;88.10
52189;DHT22;38162;45.926;13.608;2023-07-13T15:09:20;29.00;87.90
52189;DHT22;38162;45.926;13.608;2023-07-13T15:11:46;29.00;88.20
52189;DHT22;38162;45.926;13.608;2023-07-13T15:14:12;28.90;88.40
52189;DHT22;38162;45.926;13.608;2023-07-13T15:16:38;28.90;88.70
52189;DHT22;38162;45.926;13.608;2023-07-13T15:19:04;28.90;88.40
52189;DHT22;38162;45.926;13.608;2023-07-13T15:21:29;28.90;88.20
52189;DHT22;38162;45.926;13.608;2023-07-13T15:24:00;28.90;88.20
52189;DHT22;38162;45.926;13.608;2023-07-13T15:26:26;28.80;87.80
52189;DHT22;38162;45.926;13.608;2023-07-13T15:28:52;28.80;87.90
52189;DHT22;38162;45.926;13.608;2023-07-13T15:31:24;28.70;88.20
52189;DHT22;38162;45.926;13.608;2023-07-13T15:33:51;28.70;88.50
52189;DHT22;38162;45.926;13.608;2023-07-13T15:36:19;28.60;88.80
52189;DHT22;38162;45.926;13.608;2023-07-13T15:38:46;28.50;89.10
52189;DHT22;38162;45.926;13.608;2023-07-13T15:41:24;28.50;89.10
52189;DHT22;38162;45.926;13.608;2023-07-13T15:43:52;28.40;89.20
52189;DHT22;38162;45.926;13.608;2023-07-13T15:46:19;28.40;89.70
52189;DHT22;38162;45.926;13.608;2023-07-13T15:48:46;28.40;89.50
52189;DHT22;38162;45.926;13.608;2023-07-13T15:51:29;28.40;89.70
52189;DHT22;38162;45.926;13.608;2023-07-13T15:54:00;28.40;90.10
52189;DHT22;38162;45.926;13.608;2023-07-13T15:56:31;28.30;90.00
52189;DHT22;38162;45.926;13.608;2023-07-13T15:58:59;28.30;90.20
52189;DHT22;38162;45.926;13.608;2023-07-13T16:01:25;28.30;90.30
52189;DHT22;38162;45.926;13.608;2023-07-13T16:03:51;28.30;90.40
52189;DHT22;38162;45.926;13.608;2023-07-13T16:06:28;28.30;90.60
52189;DHT22;38162;45.926;13.608;2023-07-13T16:08:54;28.20;90.80
52189;DHT22;38162;45.926;13.608;2023-07-13T16:11:26;28.20;91.00